Time;durP1;ratioP1;P1;durP2;ratioP2;P2;SDS_P1;SDS_P2;PMS_P1;PMS_P2;Temp;Humidity;BMP_temperature;BMP_pressure;BME280_temperature;BME280_humidity;BME280_pressure;Samples;Min_cycle;Max_cycle;Signal;HPM_P1;HPM_P2
2023/01/27 00:00:21;;;;;;;2.55;1.88;;;;;;;18.76;33.95;102651.78;5033763;28;20025;-47
2023/01/27 00:02:47;;;;;;;3.05;1.77;;;;;;;18.54;33.77;102648.50;5033781;28;20018;-47
2023/01/27 00:05:15;;;;;;;3.83;1.95;;;;;;;18.49;34.25;102651.06;5032287;28;20053;-48
2023/01/27 00:07:45;;;;;;;4.10;1.42;;;;;;;18.64;33.92;102651.59;5033016;28;20029;-47
2023/01/27 00:10:17;;;;;;;2.95;1.38;;;;;;;18.54;34.09;102645.78;5032027;28;20025;-47
2023/01/27 00:15:31;;;;;;;3.33;1.73;;;;;;;18.60;34.87;102654.94;5033601;28;20545;-50
2023/01/27 00:17:57;;;;;;;3.60;1.67;;;;;;;18.76;34.00;102650.94;5033390;28;20025;-50
2023/01/27 00:26:00;;;;;;;2.60;1.83;;;;;;;18.28;35.11;102644.03;5033419;28;20103;-48
2023/01/27 00:28:30;;;;;;;1.95;1.33;;;;;;;18.33;35.08;102646.94;5033077;28;20028;-49
2023/01/27 00:30:57;;;;;;;2.70;1.38;;;;;;;18.20;34.53;102645.06;5033506;28;20056;-47
2023/01/27 00:33:26;;;;;;;2.53;1.50;;;;;;;18.23;35.07;102643.84;5032912;28;20051;-48
2023/01/27 00:35:59;;;;;;;3.20;1.45;;;;;;;18.01;35.58;102648.69;5031403;28;20048;-48
2023/01/27 00:38:31;;;;;;;3.22;1.30;;;;;;;17.88;36.20;102648.72;5032312;28;20091;-47
2023/01/27 00:43:42;;;;;;;2.53;1.45;;;;;;;17.86;36.05;102640.78;5032761;28;20036;-48
2023/01/27 00:46:08;;;;;;;1.92;1.40;;;;;;;17.75;36.24;102641.41;5032768;28;20498;-49
2023/01/27 00:48:35;;;;;;;4.00;1.45;;;;;;;17.81;36.27;102631.63;5032845;28;20037;-51
2023/01/27 00:51:02;;;;;;;3.15;1.60;;;;;;;17.55;36.83;102635.16;5032064;28;20045;-52
2023/01/27 00:53:28;;;;;;;2.58;1.45;;;;;;;17.49;36.93;102634.13;5032467;28;20029;-51
2023/01/27 00:55:57;;;;;;;3.47;1.60;;;;;;;17.48;37.30;102631.63;5032353;28;20033;-54
2023/01/27 00:58:27;;;;;;;2.03;1.30;;;;;;;17.62;37.14;102634.13;5027937;28;20052;-53
2023/01/27 01:01:00;;;;;;;4.70;1.65;;;;;;;17.94;36.13;102631.63;5031008;28;20040;-52
2023/01/27 01:03:31;;;;;;;2.63;1.50;;;;;;;17.68;36.52;102646.81;5031738;28;20025;-51
2023/01/27 01:06:03;;;;;;;3.97;1.80;;;;;;;17.62;36.96;102650.38;5032050;28;20025;-48
2023/01/27 01:08:33;;;;;;;6.32;2.35;;;;;;;17.68;36.66;102644.09;5029634;28;20045;-52
2023/01/27 01:10:59;;;;;;;2.78;1.50;;;;;;;17.57;36.43;102650.16;5032040;28;20030;-51
2023/01/27 01:13:27;;;;;;;3.00;1.55;;;;;;;17.42;37.57;102650.34;5032453;28;20497;-52
2023/01/27 01:15:54;;;;;;;2.40;1.85;;;;;;;17.51;37.31;102651.00;5026586;28;20112;-51
2023/01/27 01:18:20;;;;;;;1.85;1.27;;;;;;;17.56;37.00;102645.78;5032119;28;20030;-53
2023/01/27 01:20:47;;;;;;;4.25;1.52;;;;;;;17.72;36.70;102649.97;5032389;28;20040;-50
2023/01/27 01:23:14;;;;;;;3.95;1.48;;;;;;;17.62;37.41;102655.78;5032640;28;20170;-51
2023/01/27 01:25:41;;;;;;;3.35;1.85;;;;;;;17.66;37.30;102651.63;5032572;28;20051;-52
2023/01/27 01:28:08;;;;;;;4.97;1.50;;;;;;;17.71;37.21;102647.44;5032312;28;20033;-50
2023/01/27 01:30:36;;;;;;;3.13;1.40;;;;;;;17.53;37.97;102650.78;5032072;28;20040;-53
2023/01/27 01:33:03;;;;;;;2.42;1.50;;;;;;;17.52;37.78;102647.22;5032400;28;20025;-51
2023/01/27 01:35:30;;;;;;;2.25;1.52;;;;;;;17.40;37.86;102654.31;5032311;28;20029;-51
2023/01/27 01:37:56;;;;;;;2.10;1.40;;;;;;;17.23;38.29;102655.75;5032541;28;20391;-54
2023/01/27 01:40:24;;;;;;;4.28;1.50;;;;;;;16.97;39.13;102657.38;5030325;28;20033;-50
2023/01/27 01:42:54;;;;;;;2.40;1.50;;;;;;;16.95;39.14;102654.03;5021745;28;20094;-51
2023/01/27 01:45:44;;;;;;;2.42;1.73;;;;;;;16.68;39.53;102658.50;5031829;28;20380;-51
2023/01/27 01:48:13;;;;;;;2.55;1.30;;;;;;;16.71;39.47;102659.97;5037908;23;20035;-52
2023/01/27 01:50:44;;;;;;;2.67;1.67;;;;;;;16.56;40.17;102649.31;4992249;28;20039;-49
2023/01/27 01:53:11;;;;;;;2.03;1.50;;;;;;;16.48;40.87;102657.56;4993032;28;20388;-49
2023/01/27 01:55:39;;;;;;;3.95;2.00;;;;;;;16.62;40.88;102659.31;4990680;28;20026;-49
2023/01/27 01:58:08;;;;;;;6.10;2.83;;;;;;;16.34;41.64;102654.81;4991564;28;20389;-49
2023/01/27 02:00:35;;;;;;;5.47;2.25;;;;;;;16.03;42.75;102655.25;4991790;28;20101;-49
2023/01/27 02:03:03;;;;;;;6.40;2.63;;;;;;;16.06;42.93;102659.44;4991697;28;20037;-48
2023/01/27 02:05:36;;;;;;;5.22;2.95;;;;;;;16.16;43.18;102665.31;4992469;28;20106;-49
2023/01/27 02:08:28;;;;;;;4.38;2.90;;;;;;;16.09;43.30;102664.41;4991917;28;20121;-52
2023/01/27 02:10:55;;;;;;;5.72;2.67;;;;;;;15.75;43.91;102667.94;4992024;28;20088;-48
2023/01/27 02:13:22;;;;;;;3.55;2.40;;;;;;;15.56;44.55;102658.63;4992134;28;20085;-49
2023/01/27 02:15:52;;;;;;;3.90;2.17;;;;;;;15.52;44.69;102657.31;4991840;28;20037;-49
2023/01/27 02:18:18;;;;;;;4.05;2.78;;;;;;;15.48;44.95;102659.56;4991540;28;20354;-49
2023/01/27 02:20:53;;;;;;;7.60;3.08;;;;;;;15.54;45.01;102666.06;4992080;28;20477;-51
2023/01/27 02:23:22;;;;;;;5.93;3.50;;;;;;;15.59;45.20;102664.44;4992096;28;20493;-50
2023/01/27 02:25:57;;;;;;;3.90;3.53;;;;;;;15.53;45.23;102670.63;4991759;28;20039;-52
2023/01/27 02:28:26;;;;;;;;;;;;;;;15.65;45.12;102667.41;4992449;28;20058;-53
2023/01/27 02:30:52;;;;;;;6.35;3.65;;;;;;;15.29;45.64;102668.31;4994649;28;20364;-52
2023/01/27 02:33:18;;;;;;;6.53;3.28;;;;;;;15.16;45.72;102676.31;4996074;28;20495;-50
2023/01/27 02:35:53;;;;;;;5.07;3.55;;;;;;;14.84;46.86;102674.91;4989906;28;20154;-48
2023/01/27 02:38:23;;;;;;;5.78;2.67;;;;;;;14.66;47.25;102676.16;4992412;28;20050;-51
2023/01/27 02:40:54;;;;;;;3.83;2.22;;;;;;;14.57;47.42;102676.44;4996002;28;20424;-52
2023/01/27 02:43:20;;;;;;;5.03;2.95;;;;;;;14.52;47.41;102683.22;4996051;28;20395;-52
2023/01/27 02:45:47;;;;;;;3.50;2.30;;;;;;;14.44;47.68;102672.50;4989962;28;20468;-50
2023/01/27 02:48:14;;;;;;;3.75;2.80;;;;;;;14.29;48.38;102668.97;4995113;28;20044;-52
2023/01/27 02:50:41;;;;;;;3.63;2.63;;;;;;;14.28;47.96;102675.41;4995534;28;20030;-51
2023/01/27 02:53:07;;;;;;;3.92;2.85;;;;;;;14.14;48.59;102673.53;4986762;28;20379;-49
2023/01/27 02:55:34;;;;;;;4.97;3.08;;;;;;;14.13;48.46;102664.59;4976294;28;20227;-53
2023/01/27 02:58:00;;;;;;;7.70;3.63;;;;;;;14.20;48.65;102662.00;4976109;28;20532;-50
2023/01/27 03:00:26;;;;;;;11.10;7.38;;;;;;;13.96;49.00;102658.56;4975980;28;20041;-53
2023/01/27 03:02:53;;;;;;;16.50;8.27;;;;;;;13.90;49.02;102662.00;4985108;28;20044;-52
2023/01/27 03:05:19;;;;;;;17.42;10.55;;;;;;;13.79;49.65;102665.13;4995786;28;20077;-50
2023/01/27 03:07:45;;;;;;;15.68;9.98;;;;;;;13.61;50.45;102665.47;4995246;28;20101;-50
2023/01/27 03:10:11;;;;;;;12.85;7.45;;;;;;;13.64;49.86;102653.50;4994366;28;20047;-50
2023/01/27 03:12:37;;;;;;;10.48;7.40;;;;;;;13.87;50.34;102658.81;4995013;28;20062;-47
2023/01/27 03:20:33;;;;;;;13.02;8.25;;;;;;;13.33;50.85;102654.44;4980368;28;20092;-50
2023/01/27 03:23:00;;;;;;;12.55;7.38;;;;;;;13.40;50.71;102654.53;4995130;28;20439;-50
2023/01/27 03:25:26;;;;;;;15.43;7.47;;;;;;;13.38;51.21;102656.56;4984069;28;20066;-50
2023/01/27 03:27:52;;;;;;;12.45;7.50;;;;;;;13.24;51.11;102650.13;4976141;28;20481;-49
2023/01/27 03:30:18;;;;;;;21.23;10.30;;;;;;;13.11;51.54;102644.47;4975560;28;20027;-47
2023/01/27 03:32:48;;;;;;;10.48;6.93;;;;;;;13.07;51.61;102659.28;4975642;28;20038;-50
2023/01/27 03:35:15;;;;;;;8.75;5.95;;;;;;;12.99;51.55;102651.25;4975815;28;20034;-50
2023/01/27 03:48:41;;;;;;;6.15;4.30;;;;;;;12.67;52.13;102663.88;4994291;28;20460;-49
2023/01/27 03:51:10;;;;;;;5.20;3.97;;;;;;;12.59;52.23;102655.84;4994454;28;20026;-49
2023/01/27 03:53:37;;;;;;;7.97;4.82;;;;;;;12.75;52.51;102658.44;4994689;28;20026;-51
2023/01/27 03:56:05;;;;;;;6.32;3.72;;;;;;;12.47;52.82;102652.72;4994924;28;20062;-50
2023/01/27 03:58:34;;;;;;;6.10;4.10;;;;;;;12.34;52.93;102645.22;4994184;28;20026;-50
2023/01/27 04:01:07;;;;;;;5.80;3.20;;;;;;;12.23;53.27;102650.13;4986145;28;20569;-50
2023/01/27 04:09:07;;;;;;;3.83;2.63;;;;;;;12.01;53.76;102640.97;4975241;28;20089;-47
2023/01/27 04:14:19;;;;;;;3.85;2.60;;;;;;;11.95;53.44;102631.75;4987677;28;20126;-50
2023/01/27 04:16:45;;;;;;;7.82;2.70;;;;;;;11.77;54.33;102628.38;4994421;28;20041;-49
2023/01/27 04:19:12;;;;;;;4.72;2.60;;;;;;;11.84;53.83;102622.22;4992847;28;20045;-47
2023/01/27 04:21:39;;;;;;;3.95;2.58;;;;;;;11.80;53.82;102623.50;4993660;28;20209;-49
2023/01/27 04:24:16;;;;;;;3.95;2.20;;;;;;;11.65;54.26;102622.53;4994010;28;20034;-51
2023/01/27 04:26:45;;;;;;;5.43;2.30;;;;;;;11.41;54.77;102628.75;4994098;28;20114;-48
2023/01/27 04:29:12;;;;;;;4.75;2.28;;;;;;;10.45;57.94;102625.72;4993918;28;20030;-51
2023/01/27 04:31:39;;;;;;;4.15;1.77;;;;;;;10.67;57.33;102622.47;4993922;28;20027;-51
2023/01/27 04:34:06;;;;;;;3.28;2.00;;;;;;;10.14;58.68;102617.34;4992834;28;20022;-51
2023/01/27 04:36:32;;;;;;;5.90;3.00;;;;;;;10.20;58.69;102617.56;4974309;28;20030;-48
2023/01/27 04:38:59;;;;;;;3.38;2.10;;;;;;;10.47;57.89;102619.19;4974026;28;20027;-50
2023/01/27 04:41:25;;;;;;;5.43;2.55;;;;;;;10.53;57.69;102617.72;4992723;28;20030;-48
2023/01/27 04:43:51;;;;;;;4.75;2.65;;;;;;;10.80;56.92;102621.97;4993243;28;20105;-48
2023/01/27 04:46:17;;;;;;;5.07;2.40;;;;;;;10.63;57.04;102620.28;4993734;28;20088;-49
2023/01/27 04:48:44;;;;;;;5.30;1.70;;;;;;;10.35;57.66;102630.38;4993003;28;20069;-50
2023/01/27 04:51:10;;;;;;;6.30;2.08;;;;;;;10.54;57.01;102638.97;4991966;28;20058;-49
2023/01/27 04:53:36;;;;;;;2.17;1.45;;;;;;;10.25;57.96;102636.69;4979176;28;20027;-51
2023/01/27 04:56:14;;;;;;;2.40;1.58;;;;;;;10.12;58.68;102635.41;4993535;28;20048;-49
2023/01/27 04:58:40;;;;;;;2.35;1.60;;;;;;;10.37;57.82;102633.72;4993055;28;20034;-47
2023/01/27 05:01:06;;;;;;;3.85;2.08;;;;;;;10.46;57.54;102628.25;4993300;28;20031;-47
2023/01/27 05:03:32;;;;;;;2.17;1.70;;;;;;;10.65;57.02;102631.66;4993325;28;20118;-48
2023/01/27 05:05:59;;;;;;;2.00;1.67;;;;;;;10.24;58.06;102626.13;4992929;28;20461;-48
2023/01/27 05:08:25;;;;;;;3.10;2.35;;;;;;;10.35;57.66;102625.03;4989903;28;20065;-49
2023/01/27 05:10:51;;;;;;;5.05;2.20;;;;;;;9.91;59.51;102617.91;4973920;28;20039;-48
2023/01/27 05:13:17;;;;;;;4.18;2.22;;;;;;;10.19;58.29;102615.03;4992910;28;20081;-51
2023/01/27 05:15:44;;;;;;;2.55;1.92;;;;;;;9.46;60.95;102618.94;4992825;28;20018;-48
2023/01/27 05:18:10;;;;;;;2.13;1.58;;;;;;;9.64;60.27;102618.91;4992835;28;20073;-48
2023/01/27 05:20:36;;;;;;;3.17;1.90;;;;;;;9.42;61.20;102616.72;4992665;28;20085;-49
2023/01/27 05:25:47;;;;;;;2.60;1.70;;;;;;;9.47;60.91;102617.09;4986579;28;20506;-48
2023/01/27 05:28:13;;;;;;;2.13;1.80;;;;;;;9.05;62.21;102609.75;4973461;28;20029;-49
2023/01/27 05:30:39;;;;;;;3.92;1.80;;;;;;;9.49;60.96;102607.94;4973482;28;20049;-51
2023/01/27 05:33:07;;;;;;;2.72;1.60;;;;;;;9.47;61.12;102619.78;4973397;28;20023;-51
2023/01/27 05:35:35;;;;;;;2.72;1.45;;;;;;;9.18;62.07;102620.03;4979564;28;20030;-47
2023/01/27 05:38:01;;;;;;;2.13;1.45;;;;;;;9.25;61.44;102616.59;4992416;28;20033;-50
2023/01/27 05:40:28;;;;;;;1.75;1.20;;;;;;;8.90;62.94;102625.44;4992477;28;20030;-49
2023/01/27 05:42:55;;;;;;;3.80;1.40;;;;;;;8.84;62.85;102614.53;4985281;28;20038;-50
2023/01/27 05:45:21;;;;;;;1.25;1.15;;;;;;;9.08;62.20;102616.59;4973304;28;20030;-50
2023/01/27 05:47:50;;;;;;;3.15;1.75;;;;;;;9.42;60.92;102616.72;4972996;28;20054;-50
2023/01/27 05:50:17;;;;;;;2.60;1.60;;;;;;;9.62;60.66;102618.22;4973824;28;20046;-51
2023/01/27 05:52:44;;;;;;;2.67;1.92;;;;;;;9.43;60.50;102610.38;4992545;28;20022;-49
2023/01/27 05:55:11;;;;;;;2.67;1.90;;;;;;;9.77;59.29;102610.44;4992468;28;20030;-47
2023/01/27 05:57:37;;;;;;;2.70;1.70;;;;;;;9.81;59.60;102606.47;4991933;28;20034;-48
2023/01/27 06:00:03;;;;;;;3.47;2.45;;;;;;;9.82;59.01;102601.97;4983771;28;20081;-46
2023/01/27 06:02:30;;;;;;;7.70;4.72;;;;;;;9.58;59.51;102598.13;4977695;28;20026;-48
2023/01/27 06:04:56;;;;;;;8.35;4.53;;;;;;;9.37;60.30;102606.50;4991735;28;20440;-51
2023/01/27 06:07:22;;;;;;;5.32;4.18;;;;;;;9.61;59.29;102603.19;4990448;28;20023;-48
2023/01/27 06:09:49;;;;;;;5.03;3.05;;;;;;;9.30;60.42;102599.25;4972652;28;20501;-51
2023/01/27 06:12:15;;;;;;;4.40;2.50;;;;;;;9.40;59.78;102602.69;4973953;28;20034;-50
2023/01/27 06:14:41;;;;;;;4.43;2.35;;;;;;;9.05;60.87;102596.38;4991938;28;20101;-49
2023/01/27 06:17:07;;;;;;;3.28;1.58;;;;;;;8.99;61.37;102605.84;4990677;28;20040;-48
2023/01/27 06:19:34;;;;;;;2.95;0.98;;;;;;;9.06;61.28;102602.56;4990111;28;20031;-49
2023/01/27 06:22:01;;;;;;;2.50;1.30;;;;;;;8.96;61.35;102597.28;4992338;28;20033;-49
2023/01/27 06:24:28;;;;;;;2.13;1.48;;;;;;;9.01;61.24;102595.00;4972977;28;20125;-51
2023/01/27 06:26:55;;;;;;;2.20;1.50;;;;;;;8.87;61.61;102593.69;4972635;28;20094;-48
2023/01/27 06:29:21;;;;;;;5.50;1.75;;;;;;;8.89;61.41;102601.56;4983456;28;20045;-48
2023/01/27 06:31:47;;;;;;;3.33;1.80;;;;;;;8.85;61.79;102611.69;4991736;28;20042;-50
2023/01/27 06:34:13;;;;;;;6.47;4.25;;;;;;;8.78;61.91;102615.13;4990670;28;20493;-50
2023/01/27 06:36:39;;;;;;;16.75;10.85;;;;;;;8.58;62.23;102617.91;4971877;28;20045;-51
2023/01/27 06:39:06;;;;;;;13.43;8.48;;;;;;;8.62;62.18;102619.31;4972580;28;20054;-52
2023/01/27 06:41:32;;;;;;;7.82;4.78;;;;;;;8.12;63.42;102611.66;4954740;28;20034;-48
2023/01/27 06:43:58;;;;;;;5.85;3.33;;;;;;;7.89;64.33;102613.00;4972533;28;20117;-48
2023/01/27 06:46:25;;;;;;;7.07;3.35;;;;;;;8.02;64.02;102623.34;4979934;28;20509;-51
2023/01/27 06:48:51;;;;;;;6.72;3.35;;;;;;;8.41;62.47;102624.88;4991331;28;20049;-48
2023/01/27 06:51:17;;;;;;;7.47;3.72;;;;;;;8.40;62.21;102630.38;4984815;28;20027;-50
2023/01/27 06:53:43;;;;;;;8.05;3.53;;;;;;;8.66;61.24;102615.34;4972468;28;20469;-51
2023/01/27 06:56:10;;;;;;;5.68;2.72;;;;;;;8.83;60.49;102620.84;4989979;28;20041;-50
2023/01/27 06:58:36;;;;;;;3.55;2.30;;;;;;;8.76;60.49;102615.25;4991334;28;20026;-51
2023/01/27 07:01:05;;;;;;;2.53;1.48;;;;;;;8.67;60.47;102611.69;4989823;28;20034;-48
2023/01/27 07:03:31;;;;;;;2.65;1.20;;;;;;;8.78;59.89;102610.63;4991668;28;20121;-50
2023/01/27 07:05:57;;;;;;;2.80;1.52;;;;;;;8.77;59.88;102611.59;4989674;28;20613;-49
2023/01/27 07:08:23;;;;;;;2.78;1.40;;;;;;;8.86;59.65;102599.19;4991611;28;20112;-51
2023/01/27 07:10:50;;;;;;;3.70;1.60;;;;;;;8.86;59.40;102604.53;4975836;28;20093;-51
2023/01/27 07:13:17;;;;;;;2.83;1.40;;;;;;;8.89;59.15;102610.41;4974835;28;20389;-50
2023/01/27 07:15:44;;;;;;;5.70;1.23;;;;;;;8.95;58.99;102603.63;4971876;28;20039;-51
2023/01/27 07:18:13;;;;;;;2.03;1.20;;;;;;;8.24;60.93;102603.47;4974051;28;20109;-50
2023/01/27 07:20:40;;;;;;;1.25;0.93;;;;;;;8.18;61.48;102599.56;4975669;28;20110;-48
2023/01/27 07:23:06;;;;;;;1.55;1.13;;;;;;;7.90;61.91;102596.00;4982737;28;20507;-50
2023/01/27 07:25:34;;;;;;;2.90;1.50;;;;;;;7.57;63.64;102605.34;4995227;28;20030;-51
2023/01/27 07:28:01;;;;;;;2.97;1.30;;;;;;;7.75;62.96;102613.44;4992972;28;20512;-51
2023/01/27 07:30:28;;;;;;;2.47;1.23;;;;;;;7.83;62.69;102608.25;4992195;28;20436;-48
2023/01/27 07:32:55;;;;;;;3.38;0.93;;;;;;;8.07;62.05;102602.41;4991014;28;20053;-49
2023/01/27 07:35:22;;;;;;;3.10;1.42;;;;;;;8.18;61.32;102615.56;4994003;28;20027;-48
2023/01/27 07:37:48;;;;;;;4.00;1.40;;;;;;;8.31;60.85;102610.72;4979283;28;20035;-49
2023/01/27 07:40:15;;;;;;;2.40;1.30;;;;;;;8.38;61.05;102611.00;4975773;28;20718;-52
2023/01/27 07:42:41;;;;;;;2.38;1.30;;;;;;;8.49;60.38;102617.97;4974541;28;20035;-51
2023/01/27 07:45:08;;;;;;;1.15;0.82;;;;;;;8.41;60.34;102608.88;4975496;28;20058;-49
2023/01/27 07:47:34;;;;;;;1.25;0.80;;;;;;;8.51;60.01;102610.66;4974400;28;20117;-50
2023/01/27 07:50:01;;;;;;;4.68;1.15;;;;;;;8.24;60.47;102603.47;4975114;28;20061;-52
2023/01/27 07:52:27;;;;;;;3.15;0.90;;;;;;;8.18;60.52;102603.06;4993657;28;20026;-50
2023/01/27 07:54:53;;;;;;;2.38;1.00;;;;;;;8.30;60.30;102600.19;4992747;28;20420;-49
2023/01/27 07:57:19;;;;;;;2.13;0.85;;;;;;;8.03;60.86;102595.69;4994260;28;20050;-48
2023/01/27 07:59:46;;;;;;;1.60;0.88;;;;;;;8.04;61.06;102587.53;4990630;28;20034;-49
2023/01/27 08:02:13;;;;;;;1.52;0.80;;;;;;;8.10;61.03;102594.09;4978011;28;20084;-51
2023/01/27 08:04:39;;;;;;;2.30;0.80;;;;;;;8.29;60.28;102585.19;4994600;28;20033;-49
2023/01/27 08:07:06;;;;;;;2.17;0.80;;;;;;;8.26;60.61;102580.13;4991983;28;20642;-48
2023/01/27 08:09:32;;;;;;;1.67;0.80;;;;;;;8.10;60.87;102572.75;4974734;28;20022;-49
2023/01/27 08:11:58;;;;;;;1.00;0.55;;;;;;;8.12;60.83;102570.81;4974827;28;20026;-51
2023/01/27 08:14:24;;;;;;;3.53;0.82;;;;;;;8.01;61.09;102569.16;4975737;28;20452;-48
2023/01/27 08:16:50;;;;;;;1.95;0.80;;;;;;;7.77;61.44;102559.00;4974737;28;20027;-48
2023/01/27 08:19:17;;;;;;;1.55;0.80;;;;;;;7.97;61.19;102559.78;4974584;28;20037;-48
2023/01/27 08:21:43;;;;;;;2.17;0.73;;;;;;;7.67;62.03;102561.72;4974566;28;20026;-50
2023/01/27 08:24:11;;;;;;;2.90;1.05;;;;;;;7.46;62.92;102560.22;4989940;28;20390;-51
2023/01/27 08:26:37;;;;;;;1.38;0.80;;;;;;;7.58;62.88;102565.22;4994463;28;20428;-49
2023/01/27 08:29:04;;;;;;;2.38;1.30;;;;;;;7.53;63.56;102556.81;4983136;28;20026;-49
2023/01/27 08:31:30;;;;;;;2.45;1.00;;;;;;;7.56;63.67;102561.88;4993572;28;20022;-48
2023/01/27 08:33:57;;;;;;;2.53;1.10;;;;;;;7.71;63.30;102558.75;4992044;28;20129;-47
2023/01/27 08:36:23;;;;;;;3.63;1.33;;;;;;;7.81;62.98;102560.38;4986794;28;20098;-50
2023/01/27 08:38:50;;;;;;;2.33;1.27;;;;;;;7.87;62.75;102550.97;4993493;28;20034;-48
2023/01/27 08:41:20;;;;;;;2.22;1.30;;;;;;;7.90;62.73;102556.84;4991752;28;20033;-48
2023/01/27 08:43:47;;;;;;;1.73;1.00;;;;;;;7.77;63.14;102540.34;4993898;28;20121;-49
2023/01/27 08:46:14;;;;;;;2.10;0.90;;;;;;;7.85;63.02;102545.78;4991805;28;20034;-49
2023/01/27 08:48:41;;;;;;;3.53;1.00;;;;;;;7.91;62.65;102539.03;4993269;28;20141;-48
2023/01/27 08:51:10;;;;;;;2.60;1.00;;;;;;;7.88;62.80;102540.19;4985266;28;20031;-48
2023/01/27 08:53:36;;;;;;;1.48;1.02;;;;;;;7.99;62.58;102544.47;4973873;28;20385;-50
2023/01/27 08:56:06;;;;;;;2.15;1.15;;;;;;;8.15;61.95;102543.81;4973529;28;20038;-49
2023/01/27 08:58:33;;;;;;;2.40;1.05;;;;;;;8.00;62.24;102540.00;4973952;28;20038;-48
2023/01/27 09:01:01;;;;;;;1.23;0.93;;;;;;;7.99;62.07;102539.13;4986954;28;20168;-48
2023/01/27 09:03:28;;;;;;;1.52;0.95;;;;;;;8.16;61.43;102538.38;4993070;28;20030;-48
2023/01/27 09:05:54;;;;;;;1.27;0.80;;;;;;;7.54;63.43;102533.69;4991372;28;20588;-50
2023/01/27 09:08:21;;;;;;;3.97;1.10;;;;;;;7.83;62.43;102528.28;4993028;28;20623;-48
2023/01/27 09:10:47;;;;;;;2.78;1.23;;;;;;;7.86;62.52;102536.81;4993336;28;20034;-48
2023/01/27 09:13:15;;;;;;;2.63;1.08;;;;;;;7.75;62.83;102526.31;4991220;28;20069;-49
2023/01/27 09:15:42;;;;;;;4.07;1.10;;;;;;;7.76;63.03;102525.34;4991175;28;20034;-49
2023/01/27 09:18:10;;;;;;;2.42;1.48;;;;;;;7.72;63.31;102525.75;4992965;28;20033;-51
2023/01/27 09:20:36;;;;;;;2.17;1.52;;;;;;;7.52;64.36;102528.50;4991176;28;20057;-51
2023/01/27 09:23:04;;;;;;;3.88;1.50;;;;;;;7.44;64.92;102525.75;4975187;28;20035;-47
2023/01/27 09:25:30;;;;;;;3.53;1.65;;;;;;;7.63;64.47;102536.31;4991455;28;20501;-49
2023/01/27 09:27:58;;;;;;;3.85;1.58;;;;;;;7.47;64.55;102532.59;4973548;28;20034;-47
2023/01/27 09:30:26;;;;;;;3.42;1.42;;;;;;;7.69;63.75;102524.25;4979443;28;20019;-48
2023/01/27 09:32:56;;;;;;;2.65;1.50;;;;;;;7.77;63.45;102531.50;4976965;28;20034;-47
2023/01/27 09:35:23;;;;;;;3.63;1.67;;;;;;;7.84;63.12;102527.28;4985457;28;20038;-48
2023/01/27 09:40:30;;;;;;;2.72;1.27;;;;;;;7.76;63.16;102519.16;5048023;28;20060;-49
2023/01/27 09:42:59;;;;;;;2.60;1.30;;;;;;;7.82;62.93;102521.25;5048410;28;20090;-50
2023/01/27 09:45:53;;;;;;;2.22;1.75;;;;;;;7.90;62.68;102521.34;5051898;28;20056;-48
2023/01/27 09:48:25;;;;;;;2.95;1.88;;;;;;;7.80;62.76;102524.06;5039319;28;20423;-50
2023/01/27 09:51:01;;;;;;;4.93;2.40;;;;;;;7.83;62.50;102517.63;5039071;28;20033;-47
2023/01/27 09:53:51;;;;;;;3.28;2.50;;;;;;;7.86;63.06;102525.28;5051962;28;20107;-48
2023/01/27 09:56:48;;;;;;;3.88;2.03;;;;;;;7.84;63.28;102522.78;5052108;28;21056;-50
2023/01/27 09:59:14;;;;;;;3.28;2.30;;;;;;;7.86;63.44;102519.97;5050775;28;20028;-47
2023/01/27 10:01:56;;;;;;;4.85;2.72;;;;;;;8.06;63.38;102521.56;5052223;28;20025;-48
2023/01/27 10:04:56;;;;;;;4.57;3.15;;;;;;;7.98;63.67;102521.44;5051809;28;20036;-48
2023/01/27 10:07:45;;;;;;;4.07;3.00;;;;;;;7.82;63.95;102529.25;5051370;28;20383;-48
2023/01/27 10:10:34;;;;;;;7.82;3.75;;;;;;;7.70;66.16;102527.75;5051311;28;20021;-48
2023/01/27 10:13:15;;;;;;;6.88;3.33;;;;;;;7.68;66.10;102517.25;5011942;28;20037;-48
2023/01/27 10:15:59;;;;;;;8.40;3.42;;;;;;;7.77;66.05;102515.50;5051269;28;20383;-49
2023/01/27 10:18:47;;;;;;;4.53;3.25;;;;;;;7.78;65.48;102517.22;5051468;28;20036;-51
2023/01/27 10:21:45;;;;;;;4.85;3.00;;;;;;;7.79;65.51;102517.06;5051228;28;20040;-48
2023/01/27 10:24:14;;;;;;;6.85;3.38;;;;;;;7.73;65.48;102517.66;5051105;28;20124;-48
2023/01/27 10:26:50;;;;;;;10.50;3.78;;;;;;;7.75;65.33;102513.00;5051240;28;20495;-48
2023/01/27 10:29:24;;;;;;;3.90;2.92;;;;;;;7.72;65.49;102517.78;5050935;28;20071;-50
2023/01/27 10:31:53;;;;;;;5.93;3.37;;;;;;;7.69;65.46;102513.59;5051057;28;20029;-48
2023/01/27 10:34:34;;;;;;;4.95;2.83;;;;;;;7.65;65.56;102509.53;5050938;28;20112;-49
2023/01/27 10:37:18;;;;;;;5.65;3.33;;;;;;;7.70;65.39;102509.94;5028201;28;20053;-47
2023/01/27 10:40:06;;;;;;;4.45;2.88;;;;;;;7.65;65.50;102507.69;5011337;28;20090;-49
2023/01/27 10:42:40;;;;;;;6.75;2.95;;;;;;;7.64;65.53;102505.19;5013279;28;20022;-48
2023/01/27 10:45:20;;;;;;;6.22;2.88;;;;;;;7.65;65.71;102507.69;5031303;28;20029;-47
2023/01/27 10:48:06;;;;;;;6.57;3.33;;;;;;;7.80;66.00;102504.56;5030914;28;20495;-47
2023/01/27 10:50:35;;;;;;;5.60;3.50;;;;;;;7.70;66.62;102509.94;5016087;28;20515;-48
2023/01/27 10:53:09;;;;;;;6.90;3.95;;;;;;;7.70;66.83;102509.09;5035484;28;20037;-48
2023/01/27 10:56:07;;;;;;;8.30;4.18;;;;;;;7.65;67.41;102505.03;5035348;28;20685;-48
2023/01/27 10:58:56;;;;;;;7.25;3.35;;;;;;;7.64;67.65;102502.50;5004236;28;20095;-51
2023/01/27 11:01:33;;;;;;;6.18;4.05;;;;;;;7.70;67.62;102498.44;5034822;28;20043;-51
2023/01/27 11:04:41;;;;;;;6.78;3.42;;;;;;;7.64;67.71;102494.53;5034840;28;20040;-48
2023/01/27 11:07:18;;;;;;;4.43;3.38;;;;;;;7.66;67.71;102501.41;4953084;29;20045;-48
2023/01/27 11:10:02;;;;;;;5.00;3.40;;;;;;;7.65;67.84;102498.84;5024556;28;20037;-50
2023/01/27 11:12:38;;;;;;;4.45;3.40;;;;;;;7.75;67.52;102496.16;5033470;28;20079;-49
2023/01/27 11:15:25;;;;;;;4.07;3.15;;;;;;;7.76;67.37;102487.19;5035025;28;20033;-50
2023/01/27 11:18:04;;;;;;;5.30;3.20;;;;;;;7.61;68.32;102485.00;5032953;28;20037;-51
2023/01/27 11:20:40;;;;;;;4.15;3.15;;;;;;;7.58;68.40;102477.28;5033599;28;20088;-51
2023/01/27 11:23:09;;;;;;;5.15;3.00;;;;;;;7.58;68.45;102479.97;5034763;28;20036;-48
2023/01/27 11:26:03;;;;;;;5.65;3.55;;;;;;;7.69;68.19;102481.59;5033099;28;20475;-49
2023/01/27 11:29:06;;;;;;;4.50;3.33;;;;;;;7.59;68.43;102481.63;5033957;28;20034;-48
2023/01/27 11:31:56;;;;;;;5.85;3.75;;;;;;;7.61;68.29;102479.69;5032024;28;20628;-48
2023/01/27 11:34:25;;;;;;;4.72;3.47;;;;;;;7.59;68.10;102484.28;5033788;28;20036;-47
2023/01/27 11:36:51;;;;;;;6.38;3.78;;;;;;;7.53;68.51;102479.56;5034430;28;20042;-49
2023/01/27 11:39:18;;;;;;;5.13;3.20;;;;;;;7.50;68.79;102477.19;5032052;28;20049;-48
2023/01/27 11:41:51;;;;;;;6.97;3.72;;;;;;;7.44;68.87;102472.44;5034449;28;20017;-48
2023/01/27 11:44:31;;;;;;;5.00;3.40;;;;;;;7.50;68.34;102477.19;5033944;28;20048;-49
2023/01/27 11:46:58;;;;;;;6.03;3.33;;;;;;;7.55;67.94;102476.72;5032734;28;20042;-52
2023/01/27 11:49:31;;;;;;;7.85;3.10;;;;;;;7.43;67.81;102464.59;5033800;28;20025;-51
2023/01/27 11:52:08;;;;;;;7.22;3.22;;;;;;;7.44;67.62;102467.13;5033319;28;20035;-50
2023/01/27 11:54:47;;;;;;;4.80;3.13;;;;;;;7.38;67.32;102467.69;5034021;28;20029;-51
2023/01/27 11:57:21;;;;;;;7.38;3.35;;;;;;;7.43;67.06;102477.91;5014357;28;20068;-47
2023/01/27 11:59:51;;;;;;;4.38;3.50;;;;;;;7.32;67.04;102484.25;5014179;28;20034;-48
2023/01/27 12:02:31;;;;;;;5.55;3.58;;;;;;;7.15;68.20;102484.00;5030787;28;20472;-47
2023/01/27 12:05:29;;;;;;;3.45;3.08;;;;;;;7.21;67.96;102481.75;5034073;28;20025;-47
2023/01/27 12:07:59;;;;;;;3.58;2.60;;;;;;;7.17;67.87;102481.22;5013531;28;20045;-47
2023/01/27 12:10:43;;;;;;;4.45;2.60;;;;;;;7.17;67.67;102480.38;5024324;28;20079;-48
2023/01/27 12:13:23;;;;;;;5.10;3.05;;;;;;;7.12;67.73;102481.63;5031920;28;20052;-49
2023/01/27 12:15:55;;;;;;;3.72;2.70;;;;;;;7.13;67.74;102475.31;5033294;28;20091;-48
2023/01/27 12:18:22;;;;;;;5.20;2.83;;;;;;;7.09;67.60;102489.91;5033626;28;20093;-47
2023/01/27 12:20:58;;;;;;;4.75;2.78;;;;;;;7.08;67.52;102480.25;5033332;28;20040;-47
2023/01/27 12:23:32;;;;;;;4.03;2.75;;;;;;;7.06;67.55;102484.88;5031955;28;20030;-48